createdAt,value
2023-02-04T00:00:38.958Z,0.00
2023-02-04T00:01:38.918Z,0.00
2023-02-04T00:02:38.987Z,0.00
2023-02-04T00:03:38.848Z,0.00
2023-02-04T00:04:40.084Z,0.00
2023-02-04T00:05:38.909Z,0.00
2023-02-04T00:06:38.988Z,0.00
2023-02-04T00:07:40.483Z,0.00
2023-02-04T00:08:38.800Z,0.00
2023-02-04T00:09:38.793Z,0.00
2023-02-04T00:10:38.735Z,0.00
2023-02-04T00:11:38.748Z,0.00
2023-02-04T00:12:38.708Z,0.00
2023-02-04T00:13:38.680Z,0.00
2023-02-04T00:14:38.712Z,0.00
2023-02-04T00:15:38.646Z,0.00
2023-02-04T00:16:38.675Z,0.00
2023-02-04T00:17:38.670Z,0.00
2023-02-04T00:18:38.621Z,0.00
2023-02-04T00:19:38.724Z,0.00
2023-02-04T00:20:38.660Z,0.00
2023-02-04T00:21:38.568Z,0.00
2023-02-04T00:22:38.557Z,0.00
2023-02-04T00:23:38.542Z,0.00
2023-02-04T00:24:38.533Z,0.00
2023-02-04T00:25:38.592Z,0.00
2023-02-04T00:26:38.640Z,0.00
2023-02-04T00:27:38.660Z,0.00
2023-02-04T00:28:38.529Z,0.00
2023-02-04T00:29:38.540Z,0.00
2023-02-04T00:30:38.579Z,0.00
2023-02-04T00:31:38.621Z,0.00
2023-02-04T00:32:38.490Z,0.00
2023-02-04T00:33:39.275Z,0.00
2023-02-04T00:34:38.459Z,0.00
2023-02-04T00:35:38.437Z,0.00
2023-02-04T00:36:38.399Z,0.00
2023-02-04T00:37:38.468Z,0.00
2023-02-04T00:38:38.394Z,0.00
2023-02-04T00:39:38.413Z,0.00
2023-02-04T00:40:38.399Z,0.00
2023-02-04T00:41:38.415Z,0.00
2023-02-04T00:42:38.349Z,0.00
2023-02-04T00:43:38.384Z,0.00
2023-02-04T00:44:38.402Z,0.00
2023-02-04T00:45:38.384Z,0.00
2023-02-04T00:46:39.311Z,0.00
2023-02-04T00:47:38.334Z,0.00
2023-02-04T00:48:38.305Z,0.00
2023-02-04T00:49:38.306Z,0.00
2023-02-04T00:50:38.261Z,0.00
2023-02-04T00:51:38.317Z,0.00
2023-02-04T00:52:38.285Z,0.00
2023-02-04T00:53:38.229Z,0.00
2023-02-04T00:54:38.260Z,0.00
2023-02-04T00:55:38.241Z,0.00
2023-02-04T00:56:38.197Z,0.00
2023-02-04T00:57:38.183Z,0.00
2023-02-04T00:58:38.162Z,0.00
2023-02-04T00:59:38.150Z,0.00
2023-02-04T01:00:38.227Z,0.00
2023-02-04T01:01:38.123Z,0.00
2023-02-04T01:02:38.147Z,0.00
2023-02-04T01:03:38.368Z,0.00
2023-02-04T01:04:38.131Z,0.00
2023-02-04T01:05:38.083Z,0.00
2023-02-04T01:06:38.055Z,0.00
2023-02-04T01:07:38.157Z,0.00
2023-02-04T01:08:38.054Z,0.00
2023-02-04T01:09:38.026Z,0.00
2023-02-04T01:10:38.011Z,0.00
2023-02-04T01:11:38.039Z,0.00
2023-02-04T01:12:38.010Z,0.00
2023-02-04T01:13:38.006Z,0.00
2023-02-04T01:14:38.012Z,0.00
2023-02-04T01:15:38.087Z,0.00
2023-02-04T01:16:37.996Z,0.00
2023-02-04T01:17:37.965Z,0.00
2023-02-04T01:18:37.941Z,0.00
2023-02-04T01:19:37.945Z,0.00
2023-02-04T01:20:37.952Z,0.00
2023-02-04T01:21:39.041Z,0.00
2023-02-04T01:22:37.878Z,0.00
2023-02-04T01:23:37.873Z,0.00
2023-02-04T01:24:37.898Z,0.00
2023-02-04T01:25:37.858Z,0.00
2023-02-04T01:26:37.844Z,0.00
2023-02-04T01:27:37.826Z,0.00
2023-02-04T01:28:37.835Z,0.00
2023-02-04T01:29:37.846Z,0.00
2023-02-04T01:30:37.818Z,0.00
2023-02-04T01:31:37.802Z,0.00
2023-02-04T01:32:37.782Z,0.00
2023-02-04T01:33:37.757Z,0.00
2023-02-04T01:34:37.779Z,0.00
2023-02-04T01:35:37.759Z,0.00
2023-02-04T01:36:37.735Z,0.00
2023-02-04T01:37:37.742Z,0.00
2023-02-04T01:38:37.734Z,0.00
2023-02-04T01:39:37.668Z,0.00
2023-02-04T01:40:37.721Z,0.00
2023-02-04T01:41:37.679Z,0.00
2023-02-04T01:42:37.655Z,0.00
2023-02-04T01:43:37.672Z,0.00
2023-02-04T01:44:37.661Z,0.00
2023-02-04T01:45:37.676Z,0.00
2023-02-04T01:46:37.630Z,0.00
2023-02-04T01:47:37.644Z,0.00
2023-02-04T01:48:37.578Z,0.00
2023-02-04T01:49:37.581Z,0.00
2023-02-04T01:52:02.623Z,0.00
2023-02-04T01:52:04.924Z,0.00
2023-02-04T01:53:04.970Z,0.00
2023-02-04T01:55:28.733Z,0.00
2023-02-04T01:55:59.668Z,0.00
2023-02-04T01:56:30.316Z,0.00
2023-02-04T01:58:54.125Z,0.00
2023-02-04T01:59:19.206Z,0.00
2023-02-04T02:00:00.955Z,0.00
2023-02-04T02:00:56.788Z,0.00
2023-02-04T02:01:56.420Z,0.00
2023-02-04T02:02:56.134Z,0.00
2023-02-04T02:04:24.706Z,0.00
2023-02-04T02:06:28.575Z,0.00
2023-02-04T02:07:53.721Z,0.00
2023-02-04T02:08:43.188Z,0.00
2023-02-04T02:09:44.761Z,0.00
2023-02-04T02:12:12.666Z,0.00
2023-02-04T02:21:52.461Z,0.00
2023-02-04T02:24:17.689Z,0.00
2023-02-04T02:29:05.565Z,0.00
2023-02-04T02:30:42.633Z,0.00
2023-02-04T02:33:05.221Z,0.00
2023-02-04T02:33:16.959Z,0.00
2023-02-04T02:36:37.571Z,0.00
2023-02-04T02:39:59.046Z,0.00
2023-02-04T02:47:05.405Z,0.00
2023-02-04T02:50:32.364Z,0.00
2023-02-04T02:54:26.378Z,0.00
2023-02-04T02:56:26.841Z,0.00
2023-02-04T02:56:33.113Z,0.00
2023-02-04T02:59:46.101Z,0.00
2023-02-04T03:01:43.928Z,0.00
2023-02-04T03:04:57.276Z,0.00
2023-02-04T03:13:09.407Z,0.00
2023-02-04T03:14:28.595Z,0.00
2023-02-04T03:17:58.864Z,0.00
2023-02-04T03:20:02.637Z,0.00
2023-02-04T03:24:24.748Z,0.00
2023-02-04T03:24:33.937Z,0.00
2023-02-04T03:27:05.181Z,0.00
2023-02-04T03:28:55.256Z,0.00
2023-02-04T03:29:40.315Z,0.00
2023-02-04T03:32:03.487Z,0.00
2023-02-04T03:32:07.188Z,0.00
2023-02-04T03:33:06.067Z,0.00
2023-02-04T03:34:06.154Z,0.00
2023-02-04T03:35:06.049Z,0.00
2023-02-04T03:36:06.075Z,0.00
2023-02-04T03:37:06.054Z,0.00
2023-02-04T03:38:05.968Z,0.00
2023-02-04T03:39:05.992Z,0.00
2023-02-04T03:40:06.645Z,0.00
2023-02-04T03:41:06.064Z,0.00
2023-02-04T03:42:05.968Z,0.00
2023-02-04T03:43:05.988Z,0.00
2023-02-04T03:44:05.957Z,0.00
2023-02-04T03:45:05.927Z,0.00
2023-02-04T03:46:06.049Z,0.00
2023-02-04T03:47:05.937Z,0.00
2023-02-04T03:48:05.895Z,0.00
2023-02-04T03:49:05.880Z,0.00
2023-02-04T03:50:06.942Z,0.00
2023-02-04T03:51:05.895Z,0.00
2023-02-04T03:52:05.896Z,0.00
2023-02-04T03:53:05.854Z,0.00
2023-02-04T03:54:05.892Z,0.00
2023-02-04T03:55:05.837Z,0.00
2023-02-04T03:56:05.798Z,0.00
2023-02-04T03:57:05.805Z,0.00
2023-02-04T03:58:05.814Z,0.00
2023-02-04T03:59:05.782Z,0.00
2023-02-04T04:00:05.757Z,0.00
2023-02-04T04:01:05.749Z,0.00
2023-02-04T04:02:05.799Z,0.00
2023-02-04T04:03:05.807Z,0.00
2023-02-04T04:04:05.717Z,0.00
2023-02-04T04:05:05.687Z,0.00
2023-02-04T04:06:05.747Z,0.00
2023-02-04T04:07:05.727Z,0.00
2023-02-04T04:08:05.670Z,0.00
2023-02-04T04:09:05.679Z,0.00
2023-02-04T04:10:05.636Z,0.00
2023-02-04T04:11:05.680Z,0.00
2023-02-04T04:12:05.622Z,0.00
2023-02-04T04:13:05.597Z,0.00
2023-02-04T04:14:05.639Z,0.00
2023-02-04T04:15:05.614Z,0.00
2023-02-04T04:16:05.618Z,0.00
2023-02-04T04:17:05.531Z,0.00
2023-02-04T04:18:05.540Z,0.00
2023-02-04T04:19:05.516Z,0.00
2023-02-04T04:20:05.568Z,0.00
2023-02-04T04:21:05.527Z,0.00
2023-02-04T04:22:05.490Z,0.00
2023-02-04T04:23:05.465Z,0.00
2023-02-04T04:24:05.532Z,0.00
2023-02-04T04:25:05.506Z,0.00
2023-02-04T04:26:05.494Z,0.00
2023-02-04T04:27:05.476Z,0.00
2023-02-04T04:28:05.533Z,0.00
2023-02-04T04:29:05.420Z,0.00
2023-02-04T04:30:05.388Z,0.00
2023-02-04T04:31:05.526Z,0.00
2023-02-04T04:32:05.471Z,0.00
2023-02-04T04:33:05.356Z,0.00
2023-02-04T04:34:05.351Z,0.00
2023-02-04T04:35:05.353Z,0.00
2023-02-04T04:36:05.333Z,0.00
2023-02-04T04:37:05.322Z,0.00
2023-02-04T04:38:05.320Z,0.00
2023-02-04T04:39:05.323Z,0.00
2023-02-04T04:40:05.307Z,0.00
2023-02-04T04:41:05.278Z,0.00
2023-02-04T04:42:05.265Z,0.00
2023-02-04T04:43:05.289Z,0.00
2023-02-04T04:44:05.249Z,0.00
2023-02-04T04:45:05.205Z,0.00
2023-02-04T04:46:05.205Z,0.00
2023-02-04T04:47:05.227Z,0.00
2023-02-04T04:48:05.227Z,0.00
2023-02-04T04:49:05.221Z,0.00
2023-02-04T04:50:05.218Z,0.00
2023-02-04T04:51:05.133Z,0.00
2023-02-04T04:52:05.137Z,0.00
2023-02-04T04:53:05.183Z,0.00
2023-02-04T04:54:05.217Z,0.00
2023-02-04T04:55:05.176Z,0.00
2023-02-04T04:56:05.132Z,0.00
2023-02-04T04:57:05.101Z,0.00
2023-02-04T04:58:05.061Z,0.00
2023-02-04T04:59:05.067Z,0.00
2023-02-04T05:00:05.170Z,0.00
2023-02-04T05:01:05.100Z,0.00
2023-02-04T05:02:05.068Z,0.00
2023-02-04T05:03:05.038Z,0.00
2023-02-04T05:04:05.044Z,0.00
2023-02-04T05:05:05.139Z,0.00
2023-02-04T05:06:04.987Z,0.00
2023-02-04T05:07:04.997Z,0.00
2023-02-04T05:08:04.976Z,0.00
2023-02-04T05:09:05.028Z,0.00
2023-02-04T05:10:04.943Z,0.00
2023-02-04T05:11:04.937Z,0.00
2023-02-04T05:12:04.924Z,0.00
2023-02-04T05:13:04.914Z,0.00
2023-02-04T05:14:04.937Z,0.00
2023-02-04T05:15:04.915Z,0.00
2023-02-04T05:16:04.897Z,0.00
2023-02-04T05:17:04.917Z,0.00
2023-02-04T05:18:04.895Z,0.00
2023-02-04T05:19:04.873Z,0.00
2023-02-04T05:20:04.841Z,0.00
2023-02-04T05:21:04.833Z,0.00
2023-02-04T05:22:04.809Z,0.00
2023-02-04T05:23:05.855Z,0.00
2023-02-04T05:24:04.799Z,0.00
2023-02-04T05:25:04.813Z,0.00
2023-02-04T05:26:05.651Z,0.00
2023-02-04T05:27:04.771Z,0.00
2023-02-04T05:28:04.745Z,0.00
2023-02-04T05:29:04.802Z,0.00
2023-02-04T05:30:04.798Z,0.00
2023-02-04T05:31:04.757Z,0.00
2023-02-04T05:32:04.713Z,0.00
2023-02-04T05:33:04.685Z,0.00
2023-02-04T05:34:04.691Z,0.00
2023-02-04T05:35:05.607Z,0.00
2023-02-04T05:36:05.695Z,0.00
2023-02-04T05:37:04.720Z,0.00
2023-02-04T05:38:04.724Z,0.00
2023-02-04T05:39:04.654Z,0.00
2023-02-04T05:40:04.628Z,0.00
2023-02-04T05:41:04.600Z,0.00
2023-02-04T05:42:04.627Z,0.00
2023-02-04T05:43:04.587Z,0.00
2023-02-04T05:44:04.581Z,0.00
2023-02-04T05:45:04.573Z,0.00
2023-02-04T05:46:04.659Z,0.00
2023-02-04T05:47:04.544Z,0.00
2023-02-04T05:48:05.614Z,0.00
2023-02-04T05:49:04.552Z,0.00
2023-02-04T05:50:05.563Z,0.00
2023-02-04T05:51:04.520Z,0.00
2023-02-04T05:52:04.491Z,0.00
2023-02-04T05:53:04.529Z,0.00
2023-02-04T05:54:04.472Z,0.00
2023-02-04T05:55:04.469Z,0.00
2023-02-04T05:56:04.439Z,0.00
2023-02-04T05:57:04.450Z,0.00
2023-02-04T05:58:04.428Z,0.00
2023-02-04T05:59:04.395Z,0.00
2023-02-04T06:00:04.386Z,0.00
2023-02-04T06:01:04.378Z,0.00
2023-02-04T06:02:04.364Z,0.00
2023-02-04T06:03:04.428Z,0.00
2023-02-04T06:04:04.378Z,0.00
2023-02-04T06:05:04.327Z,0.00
2023-02-04T06:06:04.304Z,0.00
2023-02-04T06:07:04.312Z,0.00
2023-02-04T06:08:04.401Z,0.00
2023-02-04T06:09:05.111Z,0.00
2023-02-04T06:10:04.279Z,0.00
2023-02-04T06:11:04.267Z,0.00
2023-02-04T06:12:04.282Z,0.00
2023-02-04T06:13:05.588Z,0.00
2023-02-04T06:14:04.282Z,0.00
2023-02-04T06:15:04.246Z,0.00
2023-02-04T06:16:04.332Z,0.00
2023-02-04T06:17:04.515Z,0.00
2023-02-04T06:18:04.317Z,0.00
2023-02-04T06:19:04.259Z,0.00
2023-02-04T06:20:04.176Z,0.00
2023-02-04T06:21:04.203Z,4.00
2023-02-04T06:22:04.156Z,0.00
2023-02-04T06:23:04.127Z,0.00
2023-02-04T06:24:05.420Z,0.00
2023-02-04T06:25:05.120Z,4.00
2023-02-04T06:26:05.111Z,4.00
2023-02-04T06:27:05.084Z,0.00
2023-02-04T06:28:04.234Z,4.00
2023-02-04T06:29:04.076Z,4.00
2023-02-04T06:30:04.053Z,4.00
2023-02-04T06:31:04.251Z,8.00
2023-02-04T06:32:04.149Z,8.00
2023-02-04T06:33:04.050Z,8.00
2023-02-04T06:34:04.047Z,8.00
2023-02-04T06:35:04.036Z,12.00
2023-02-04T06:36:04.129Z,16.00
2023-02-04T06:37:04.001Z,20.00
2023-02-04T06:38:04.095Z,20.00
2023-02-04T06:39:03.970Z,24.00
2023-02-04T06:40:03.988Z,28.00
2023-02-04T06:41:03.947Z,32.00
2023-02-04T06:42:03.964Z,32.00
2023-02-04T06:43:04.604Z,36.00
2023-02-04T06:44:04.955Z,36.00
2023-02-04T06:45:03.892Z,44.00
2023-02-04T06:46:03.924Z,48.00
2023-02-04T06:47:03.866Z,52.00
2023-02-04T06:48:03.983Z,64.00
2023-02-04T06:49:04.610Z,76.00
2023-02-04T06:50:03.826Z,88.00
2023-02-04T06:51:04.912Z,100.00
2023-02-04T06:52:03.828Z,116.00
2023-02-04T06:53:03.915Z,132.00
2023-02-04T06:54:03.781Z,140.00
2023-02-04T06:55:03.823Z,156.00
2023-02-04T06:56:03.781Z,176.00
2023-02-04T06:57:03.791Z,192.00
2023-02-04T06:58:03.751Z,204.00
2023-02-04T06:59:03.786Z,216.00
2023-02-04T07:00:04.111Z,224.00
2023-02-04T07:01:03.860Z,240.00
2023-02-04T07:02:03.737Z,252.00
2023-02-04T07:03:03.744Z,260.00
2023-02-04T07:04:03.695Z,276.00
2023-02-04T07:05:03.726Z,300.00
2023-02-04T07:06:03.679Z,312.00
2023-02-04T07:07:03.674Z,324.00
2023-02-04T07:08:03.664Z,332.00
2023-02-04T07:09:03.667Z,344.00
2023-02-04T07:10:03.656Z,368.00
2023-02-04T07:11:05.272Z,400.00
2023-02-04T07:12:03.839Z,432.00
2023-02-04T07:13:03.587Z,472.00
2023-02-04T07:14:03.585Z,520.00
2023-02-04T07:15:03.711Z,564.00
2023-02-04T07:16:03.754Z,624.00
2023-02-04T07:17:03.539Z,716.00
2023-02-04T07:18:09.996Z,820.00
2023-02-04T07:19:03.536Z,944.00
2023-02-04T07:20:04.726Z,1056.00
2023-02-04T07:21:03.542Z,1176.00
2023-02-04T07:23:30.588Z,1328.00
2023-02-04T07:26:48.945Z,2180.00
2023-02-04T07:27:49.014Z,2404.00
2023-02-04T07:28:48.888Z,2600.00
2023-02-04T07:29:48.860Z,2712.00
2023-02-04T07:30:48.898Z,2856.00
2023-02-04T07:31:48.916Z,2944.00
2023-02-04T07:32:48.877Z,3392.00
2023-02-04T07:35:15.005Z,4392.00
2023-02-04T07:35:16.537Z,10488.00
2023-02-04T07:36:16.533Z,7616.00
2023-02-04T07:37:16.623Z,11488.00
2023-02-04T07:38:16.478Z,18656.00
2023-02-04T07:39:17.451Z,20256.00
2023-02-04T07:40:16.475Z,17952.00
2023-02-04T07:41:46.190Z,18816.00
2023-02-04T07:44:57.974Z,10432.00
2023-02-04T07:45:24.625Z,24256.00
2023-02-04T07:46:25.223Z,43168.00
2023-02-04T07:47:23.437Z,31232.00
2023-02-04T07:48:24.927Z,14688.00
2023-02-04T07:49:24.128Z,13600.00
2023-02-04T07:50:26.510Z,22208.00
2023-02-04T07:51:23.777Z,16512.00
2023-02-04T07:52:24.937Z,5976.00
2023-02-04T07:53:23.439Z,6208.00
2023-02-04T07:54:24.446Z,6848.00
2023-02-04T07:55:24.759Z,6384.00
2023-02-04T07:56:23.919Z,9888.00
2023-02-04T07:57:23.753Z,17504.00
2023-02-04T07:58:22.811Z,24704.00
2023-02-04T07:59:22.716Z,22944.00
2023-02-04T08:00:22.717Z,13728.00
2023-02-04T08:01:23.751Z,7504.00
2023-02-04T08:02:28.614Z,7128.00
2023-02-04T08:03:24.813Z,6252.00
2023-02-04T08:04:22.819Z,6024.00
2023-02-04T08:05:22.726Z,5844.00
2023-02-04T08:06:23.405Z,5516.00
2023-02-04T08:07:24.918Z,5140.00
2023-02-04T08:08:25.391Z,4728.00
2023-02-04T08:09:23.381Z,4432.00
2023-02-04T08:10:24.766Z,4172.00
2023-02-04T08:11:24.217Z,4332.00
2023-02-04T08:12:23.608Z,4352.00
2023-02-04T08:13:22.705Z,4976.00
2023-02-04T08:14:23.402Z,5444.00
2023-02-04T08:15:22.732Z,6404.00
2023-02-04T08:16:23.568Z,7168.00
2023-02-04T08:17:25.866Z,7504.00
2023-02-04T08:18:24.519Z,7972.00
2023-02-04T08:19:23.743Z,8360.00
2023-02-04T08:20:23.486Z,8644.00
2023-02-04T08:21:25.040Z,8408.00
2023-02-04T08:22:24.588Z,8296.00
2023-02-04T08:23:23.558Z,8260.00
2023-02-04T08:24:22.482Z,7820.00
2023-02-04T08:25:23.436Z,7424.00
2023-02-04T08:26:23.153Z,8248.00
2023-02-04T08:27:23.984Z,9032.00
2023-02-04T08:28:22.938Z,9336.00
2023-02-04T08:29:23.386Z,9092.00
2023-02-04T08:30:23.010Z,8668.00
2023-02-04T08:31:24.062Z,8788.00
2023-02-04T08:32:23.097Z,9412.00
2023-02-04T08:33:22.955Z,9828.00
2023-02-04T08:34:22.552Z,9980.00
2023-02-04T08:35:22.375Z,10320.00
2023-02-04T08:36:22.397Z,11632.00
2023-02-04T08:37:22.369Z,12112.00
2023-02-04T08:38:22.315Z,12628.00
2023-02-04T08:39:22.301Z,13212.00
2023-02-04T08:40:22.453Z,14568.00
2023-02-04T08:41:22.301Z,17824.00
2023-02-04T08:42:22.268Z,21376.00
2023-02-04T08:43:22.310Z,16192.00
2023-02-04T08:44:22.271Z,15840.00
2023-02-04T08:45:22.274Z,16736.00
2023-02-04T08:46:23.382Z,17088.00
2023-02-04T08:47:22.297Z,21952.00
2023-02-04T08:48:22.534Z,25344.00
2023-02-04T08:49:22.305Z,17856.00
2023-02-04T08:50:23.283Z,15840.00
2023-02-04T08:51:23.418Z,13360.00
2023-02-04T08:52:23.962Z,13596.00
2023-02-04T08:53:22.336Z,18880.00
2023-02-04T08:54:23.365Z,22400.00
2023-02-04T08:55:23.255Z,50112.00
2023-02-04T08:56:22.205Z,43936.00
2023-02-04T08:57:23.727Z,45856.00
2023-02-04T08:58:22.465Z,39712.00
2023-02-04T08:59:23.208Z,53440.00
2023-02-04T09:00:24.598Z,39264.00
2023-02-04T09:01:23.584Z,34816.00
2023-02-04T09:02:24.250Z,49024.00
2023-02-04T09:03:23.594Z,36160.00
2023-02-04T09:04:23.230Z,20576.00
2023-02-04T09:05:22.243Z,18016.00
2023-02-04T09:06:22.039Z,16896.00
2023-02-04T09:07:22.040Z,15520.00
2023-02-04T09:08:22.017Z,15296.00
2023-02-04T09:09:23.301Z,16224.00
2023-02-04T09:10:23.013Z,18304.00
2023-02-04T09:11:21.962Z,20064.00
2023-02-04T09:12:23.488Z,23008.00
2023-02-04T09:13:22.007Z,25856.00
2023-02-04T09:14:22.280Z,40608.00
2023-02-04T09:15:21.941Z,28704.00
2023-02-04T09:16:21.948Z,34240.00
2023-02-04T09:17:21.972Z,60192.00
2023-02-04T09:18:23.301Z,66624.00
2023-02-04T09:19:22.247Z,59648.00
2023-02-04T09:20:22.810Z,61280.00
2023-02-04T09:21:22.935Z,49408.00
2023-02-04T09:22:22.251Z,36928.00
2023-02-04T09:23:22.671Z,38176.00
2023-02-04T09:24:21.900Z,29376.00
2023-02-04T09:25:22.942Z,23904.00
2023-02-04T09:26:22.636Z,22752.00
2023-02-04T09:27:22.155Z,30240.00
2023-02-04T09:28:21.833Z,40704.00
2023-02-04T09:29:21.781Z,33280.00
2023-02-04T09:30:21.761Z,44352.00
2023-02-04T09:31:21.907Z,43008.00
2023-02-04T09:32:21.816Z,34912.00
2023-02-04T09:33:21.760Z,14716.00
2023-02-04T09:34:22.256Z,15752.00
2023-02-04T09:35:21.742Z,22112.00
2023-02-04T09:36:21.723Z,22976.00
2023-02-04T09:37:21.747Z,19744.00
2023-02-04T09:38:21.667Z,19776.00
2023-02-04T09:39:21.710Z,20128.00
2023-02-04T09:40:21.975Z,18624.00
2023-02-04T09:41:21.935Z,16704.00
2023-02-04T09:42:22.771Z,14484.00
2023-02-04T09:43:22.489Z,13268.00
2023-02-04T09:44:21.776Z,12504.00
2023-02-04T09:45:22.397Z,12000.00
2023-02-04T09:46:21.781Z,11312.00
2023-02-04T09:47:21.677Z,10464.00
2023-02-04T09:48:21.596Z,8096.00
2023-02-04T09:49:21.541Z,7112.00
2023-02-04T09:50:21.581Z,7696.00
2023-02-04T09:51:21.653Z,7688.00
2023-02-04T09:52:21.521Z,8076.00
2023-02-04T09:53:21.618Z,9492.00
2023-02-04T09:54:22.509Z,9144.00
2023-02-04T09:55:22.022Z,10328.00
2023-02-04T09:56:22.778Z,10868.00
2023-02-04T09:57:21.490Z,11320.00
2023-02-04T09:58:21.472Z,11804.00
2023-02-04T09:59:23.099Z,12300.00
2023-02-04T10:00:22.504Z,13104.00
2023-02-04T10:01:22.922Z,14184.00
2023-02-04T10:02:22.245Z,15936.00
2023-02-04T10:03:22.715Z,19040.00
2023-02-04T10:04:23.010Z,32608.00
2023-02-04T10:05:22.825Z,39104.00
2023-02-04T10:06:22.535Z,25312.00
2023-02-04T10:07:21.429Z,24160.00
2023-02-04T10:08:21.445Z,21056.00
2023-02-04T10:09:21.310Z,13772.00
2023-02-04T10:10:21.318Z,12020.00
2023-02-04T10:11:21.297Z,10792.00
2023-02-04T10:12:21.294Z,10984.00
2023-02-04T10:13:21.258Z,12592.00
2023-02-04T10:14:21.256Z,13716.00
2023-02-04T10:15:21.302Z,13736.00
2023-02-04T10:16:21.273Z,12720.00
2023-02-04T10:17:21.230Z,10684.00
2023-02-04T10:18:21.322Z,10808.00
2023-02-04T10:19:21.198Z,11612.00
2023-02-04T10:20:21.191Z,11316.00
2023-02-04T10:21:21.186Z,10180.00
2023-02-04T10:22:22.169Z,9676.00
2023-02-04T10:23:21.205Z,9560.00
2023-02-04T10:24:21.148Z,9404.00
2023-02-04T10:25:21.854Z,9224.00
2023-02-04T10:26:23.452Z,9220.00
2023-02-04T10:27:21.121Z,8820.00
2023-02-04T10:28:21.097Z,8676.00
2023-02-04T10:29:21.110Z,8724.00
2023-02-04T10:30:21.134Z,8736.00
2023-02-04T10:31:21.276Z,8696.00
2023-02-04T10:32:21.043Z,8704.00
2023-02-04T10:33:21.049Z,8764.00
2023-02-04T10:34:21.043Z,8856.00
2023-02-04T10:35:21.005Z,9092.00
2023-02-04T10:36:21.017Z,9028.00
2023-02-04T10:37:21.053Z,8796.00
2023-02-04T10:38:20.983Z,8668.00
2023-02-04T10:39:21.002Z,8696.00
2023-02-04T10:40:20.991Z,8988.00
2023-02-04T10:41:21.088Z,9308.00
2023-02-04T10:42:20.956Z,9488.00
2023-02-04T10:43:20.954Z,9940.00
2023-02-04T10:44:20.912Z,10856.00
2023-02-04T10:45:22.368Z,10992.00
2023-02-04T10:46:23.203Z,10884.00
2023-02-04T10:47:21.986Z,10868.00
2023-02-04T10:48:22.602Z,11664.00
2023-02-04T10:49:21.094Z,13576.00
2023-02-04T10:50:20.885Z,13668.00
2023-02-04T10:51:24.334Z,15408.00
2023-02-04T10:52:22.979Z,16960.00
2023-02-04T10:53:22.462Z,13028.00
2023-02-04T10:54:22.113Z,15132.00
2023-02-04T10:55:22.107Z,15300.00
2023-02-04T10:56:22.160Z,14916.00
2023-02-04T10:57:21.893Z,20640.00
2023-02-04T10:58:21.756Z,22944.00
2023-02-04T10:59:20.757Z,24384.00
2023-02-04T11:00:20.760Z,44288.00
2023-02-04T11:01:20.831Z,43520.00
2023-02-04T11:02:20.725Z,46528.00
2023-02-04T11:03:23.235Z,63776.00
2023-02-04T11:04:21.386Z,88640.00
2023-02-04T11:05:20.993Z,92864.00
2023-02-04T11:06:21.234Z,71200.00
2023-02-04T11:07:20.658Z,39200.00
2023-02-04T11:08:20.667Z,27872.00
2023-02-04T11:09:20.899Z,7436.00
2023-02-04T11:10:20.747Z,7280.00
2023-02-04T11:11:21.551Z,7860.00
2023-02-04T11:12:20.624Z,7364.00
2023-02-04T11:13:20.593Z,6844.00
2023-02-04T11:14:20.574Z,9748.00
2023-02-04T11:15:20.577Z,47776.00
2023-02-04T11:16:20.588Z,22688.00
2023-02-04T11:17:20.561Z,19264.00
2023-02-04T11:18:20.568Z,23904.00
2023-02-04T11:19:20.512Z,26144.00
2023-02-04T11:20:22.280Z,27136.00
2023-02-04T11:21:20.744Z,19872.00
2023-02-04T11:22:20.552Z,20160.00
2023-02-04T11:23:20.986Z,21504.00
2023-02-04T11:24:21.836Z,20224.00
2023-02-04T11:25:22.250Z,27008.00
2023-02-04T11:26:20.549Z,27168.00
2023-02-04T11:27:20.407Z,35200.00
2023-02-04T11:28:20.498Z,28992.00
2023-02-04T11:29:20.543Z,22592.00
2023-02-04T11:30:20.385Z,17984.00
2023-02-04T11:31:20.456Z,13192.00
2023-02-04T11:32:21.644Z,11208.00
2023-02-04T11:33:21.372Z,11336.00
2023-02-04T11:34:20.691Z,12384.00
2023-02-04T11:35:20.497Z,17088.00
2023-02-04T11:36:20.336Z,24544.00
2023-02-04T11:37:20.779Z,28544.00
2023-02-04T11:38:20.566Z,26016.00
2023-02-04T11:39:20.813Z,21184.00
2023-02-04T11:40:20.784Z,28640.00
2023-02-04T11:41:20.812Z,36064.00
2023-02-04T11:42:20.245Z,62464.00
2023-02-04T11:43:21.967Z,66464.00
2023-02-04T11:44:20.563Z,60992.00
2023-02-04T11:45:20.204Z,46784.00
2023-02-04T11:46:20.316Z,31424.00
2023-02-04T11:47:20.943Z,33280.00
2023-02-04T11:48:20.948Z,31264.00
2023-02-04T11:49:20.248Z,44256.00
2023-02-04T11:50:20.395Z,55840.00
2023-02-04T11:51:20.198Z,72384.00
2023-02-04T11:52:20.680Z,72000.00
2023-02-04T11:53:20.403Z,45152.00
2023-02-04T11:54:20.111Z,57280.00
2023-02-04T11:55:20.087Z,33312.00
2023-02-04T11:56:20.368Z,18912.00
2023-02-04T11:57:20.065Z,17344.00
2023-02-04T11:58:20.102Z,14164.00
2023-02-04T11:59:20.074Z,12568.00
2023-02-04T12:00:20.428Z,12464.00
2023-02-04T12:01:20.027Z,12612.00
2023-02-04T12:02:20.057Z,13220.00
2023-02-04T12:03:20.022Z,13380.00
2023-02-04T12:04:20.028Z,12736.00
2023-02-04T12:05:20.076Z,11740.00
2023-02-04T12:06:20.010Z,10900.00
2023-02-04T12:07:20.216Z,9876.00
2023-02-04T12:08:20.796Z,10288.00
2023-02-04T12:09:20.107Z,10900.00
2023-02-04T12:10:20.688Z,10952.00
2023-02-04T12:11:20.469Z,10592.00
2023-02-04T12:12:20.040Z,9964.00
2023-02-04T12:13:19.925Z,10056.00
2023-02-04T12:14:19.879Z,9052.00
2023-02-04T12:15:19.942Z,9124.00
2023-02-04T12:16:19.982Z,11644.00
2023-02-04T12:17:21.627Z,13036.00
2023-02-04T12:18:20.376Z,12928.00
2023-02-04T12:19:20.611Z,11892.00
2023-02-04T12:20:19.924Z,12312.00
2023-02-04T12:21:19.865Z,12916.00
2023-02-04T12:22:19.851Z,12180.00
2023-02-04T12:23:19.834Z,11184.00
2023-02-04T12:24:19.794Z,9628.00
2023-02-04T12:25:19.788Z,8864.00
2023-02-04T12:26:19.790Z,9700.00
2023-02-04T12:27:20.019Z,9144.00
2023-02-04T12:28:21.180Z,9392.00
2023-02-04T12:29:20.744Z,10016.00
2023-02-04T12:30:21.526Z,11424.00
2023-02-04T12:31:19.929Z,13292.00
2023-02-04T12:32:20.636Z,11588.00
2023-02-04T12:33:19.717Z,11308.00
2023-02-04T12:34:20.479Z,11336.00
2023-02-04T12:35:20.588Z,11764.00
2023-02-04T12:36:21.974Z,11876.00
2023-02-04T12:37:20.839Z,12144.00
2023-02-04T12:38:20.995Z,12124.00
2023-02-04T12:39:21.427Z,12164.00
2023-02-04T12:40:20.467Z,12008.00
2023-02-04T12:41:20.652Z,11408.00
2023-02-04T12:42:20.093Z,10932.00
2023-02-04T12:43:20.343Z,10472.00
2023-02-04T12:44:20.646Z,9988.00
2023-02-04T12:45:20.710Z,9620.00
2023-02-04T12:46:20.096Z,9084.00
2023-02-04T12:47:20.178Z,8520.00
2023-02-04T12:48:20.402Z,8096.00
2023-02-04T12:49:20.225Z,8028.00
2023-02-04T12:50:22.078Z,8336.00
2023-02-04T12:51:20.980Z,8740.00
2023-02-04T12:52:20.536Z,8928.00
2023-02-04T12:53:19.522Z,9012.00
2023-02-04T12:54:19.490Z,9048.00
2023-02-04T12:55:19.558Z,9308.00
2023-02-04T12:56:19.529Z,9428.00
2023-02-04T12:57:19.521Z,9940.00
2023-02-04T12:58:19.493Z,10364.00
2023-02-04T12:59:19.981Z,10536.00
2023-02-04T13:00:20.831Z,10848.00
2023-02-04T13:01:20.398Z,11284.00
2023-02-04T13:02:20.115Z,10052.00
2023-02-04T13:03:21.327Z,9180.00
2023-02-04T13:04:21.018Z,10168.00
2023-02-04T13:05:21.590Z,10532.00
2023-02-04T13:06:20.625Z,10644.00
2023-02-04T13:07:20.516Z,10348.00
2023-02-04T13:08:20.566Z,9200.00
2023-02-04T13:09:20.565Z,9792.00
2023-02-04T13:10:21.016Z,9840.00
2023-02-04T13:11:20.060Z,8912.00
2023-02-04T13:12:21.656Z,8776.00
2023-02-04T13:13:20.742Z,8224.00
2023-02-04T13:14:21.705Z,7856.00
2023-02-04T13:15:21.157Z,7460.00
2023-02-04T13:16:20.064Z,7372.00
2023-02-04T13:17:20.218Z,7524.00
2023-02-04T13:18:21.947Z,8992.00
2023-02-04T13:19:19.698Z,8792.00
2023-02-04T13:20:19.806Z,8024.00
2023-02-04T13:21:20.092Z,8000.00
2023-02-04T13:22:20.391Z,8376.00
2023-02-04T13:23:20.051Z,8308.00
2023-02-04T13:24:20.157Z,8236.00
2023-02-04T13:25:20.039Z,8008.00
2023-02-04T13:26:20.762Z,7732.00
2023-02-04T13:27:20.504Z,8080.00
2023-02-04T13:28:20.415Z,7916.00
2023-02-04T13:29:22.140Z,8584.00
2023-02-04T13:30:20.175Z,8416.00
2023-02-04T13:31:19.650Z,8724.00
2023-02-04T13:32:20.673Z,8976.00
2023-02-04T13:33:19.719Z,9092.00
2023-02-04T13:34:21.473Z,9196.00
2023-02-04T13:35:19.897Z,9068.00